sensor_id;sensor_type;location;lat;lon;timestamp;temperature;humidity
51982;DHT22;37998;53.416;6.730;2023-06-04T00:01:42;12.80;99.90
51982;DHT22;37998;53.416;6.730;2023-06-04T00:04:10;12.70;99.90
51982;DHT22;37998;53.416;6.730;2023-06-04T00:06:36;12.70;99.90
51982;DHT22;37998;53.416;6.730;2023-06-04T00:09:02;12.70;99.90
51982;DHT22;37998;53.416;6.730;2023-06-04T00:11:28;12.70;99.90
51982;DHT22;37998;53.416;6.730;2023-06-04T00:13:53;12.70;99.90
51982;DHT22;37998;53.416;6.730;2023-06-04T00:16:20;12.70;99.90
51982;DHT22;37998;53.416;6.730;2023-06-04T00:18:46;12.70;99.90
51982;DHT22;37998;53.416;6.730;2023-06-04T00:21:12;12.70;99.90
51982;DHT22;37998;53.416;6.730;2023-06-04T00:23:38;12.70;99.90
51982;DHT22;37998;53.416;6.730;2023-06-04T00:26:04;12.70;99.90
51982;DHT22;37998;53.416;6.730;2023-06-04T00:28:29;12.70;99.90
51982;DHT22;37998;53.416;6.730;2023-06-04T00:30:55;12.70;99.90
51982;DHT22;37998;53.416;6.730;2023-06-04T00:33:21;12.60;99.90
51982;DHT22;37998;53.416;6.730;2023-06-04T00:35:47;12.60;99.90
51982;DHT22;37998;53.416;6.730;2023-06-04T00:38:13;12.60;99.90
51982;DHT22;37998;53.416;6.730;2023-06-04T00:40:39;12.40;99.90
51982;DHT22;37998;53.416;6.730;2023-06-04T00:43:05;12.50;99.90
51982;DHT22;37998;53.416;6.730;2023-06-04T00:45:31;12.50;99.90
51982;DHT22;37998;53.416;6.730;2023-06-04T00:47:57;12.50;99.90
51982;DHT22;37998;53.416;6.730;2023-06-04T00:50:24;12.50;99.90
51982;DHT22;37998;53.416;6.730;2023-06-04T00:52:50;12.40;99.90
51982;DHT22;37998;53.416;6.730;2023-06-04T00:55:17;12.40;99.90
51982;DHT22;37998;53.416;6.730;2023-06-04T00:57:44;12.40;99.90
51982;DHT22;37998;53.416;6.730;2023-06-04T01:00:10;12.40;99.90
51982;DHT22;37998;53.416;6.730;2023-06-04T01:02:38;12.40;99.90
51982;DHT22;37998;53.416;6.730;2023-06-04T01:07:50;12.40;99.90
51982;DHT22;37998;53.416;6.730;2023-06-04T01:10:17;12.40;99.90
51982;DHT22;37998;53.416;6.730;2023-06-04T01:12:43;12.30;99.90
51982;DHT22;37998;53.416;6.730;2023-06-04T01:15:10;12.30;99.90
51982;DHT22;37998;53.416;6.730;2023-06-04T01:17:40;12.20;99.90
51982;DHT22;37998;53.416;6.730;2023-06-04T01:20:32;12.10;99.90
51982;DHT22;37998;53.416;6.730;2023-06-04T01:25:41;12.20;99.90
51982;DHT22;37998;53.416;6.730;2023-06-04T01:28:11;12.20;99.90
51982;DHT22;37998;53.416;6.730;2023-06-04T01:30:39;12.20;99.90
51982;DHT22;37998;53.416;6.730;2023-06-04T01:33:10;12.20;99.90
51982;DHT22;37998;53.416;6.730;2023-06-04T01:35:37;12.20;99.90
51982;DHT22;37998;53.416;6.730;2023-06-04T01:38:03;12.20;99.90
51982;DHT22;37998;53.416;6.730;2023-06-04T01:40:29;12.20;99.90
51982;DHT22;37998;53.416;6.730;2023-06-04T01:42:56;12.20;99.90
51982;DHT22;37998;53.416;6.730;2023-06-04T01:45:22;12.20;99.90
51982;DHT22;37998;53.416;6.730;2023-06-04T01:47:49;12.20;99.90
51982;DHT22;37998;53.416;6.730;2023-06-04T01:50:15;12.30;99.90
51982;DHT22;37998;53.416;6.730;2023-06-04T01:52:41;12.20;99.90
51982;DHT22;37998;53.416;6.730;2023-06-04T01:55:09;12.30;99.90
51982;DHT22;37998;53.416;6.730;2023-06-04T01:57:37;12.30;99.90
51982;DHT22;37998;53.416;6.730;2023-06-04T02:00:05;12.30;99.90
51982;DHT22;37998;53.416;6.730;2023-06-04T02:02:39;12.30;99.90
51982;DHT22;37998;53.416;6.730;2023-06-04T02:05:09;12.30;99.90
51982;DHT22;37998;53.416;6.730;2023-06-04T02:07:43;12.30;99.90
51982;DHT22;37998;53.416;6.730;2023-06-04T02:10:15;12.20;99.90
51982;DHT22;37998;53.416;6.730;2023-06-04T02:12:53;12.10;99.90
51982;DHT22;37998;53.416;6.730;2023-06-04T02:15:21;12.20;99.90
51982;DHT22;37998;53.416;6.730;2023-06-04T02:17:49;12.10;99.90
51982;DHT22;37998;53.416;6.730;2023-06-04T02:20:16;12.10;99.90
51982;DHT22;37998;53.416;6.730;2023-06-04T02:22:43;12.00;99.90
51982;DHT22;37998;53.416;6.730;2023-06-04T02:25:08;12.00;99.90
51982;DHT22;37998;53.416;6.730;2023-06-04T02:27:35;11.90;99.90
51982;DHT22;37998;53.416;6.730;2023-06-04T02:30:02;11.90;99.90
51982;DHT22;37998;53.416;6.730;2023-06-04T02:32:28;11.90;99.90
51982;DHT22;37998;53.416;6.730;2023-06-04T02:34:55;11.90;99.90
51982;DHT22;37998;53.416;6.730;2023-06-04T02:37:22;11.80;99.90
51982;DHT22;37998;53.416;6.730;2023-06-04T02:39:48;11.90;99.90
51982;DHT22;37998;53.416;6.730;2023-06-04T02:42:14;11.90;99.90
51982;DHT22;37998;53.416;6.730;2023-06-04T02:44:40;11.90;99.90
51982;DHT22;37998;53.416;6.730;2023-06-04T02:47:06;11.80;99.90
51982;DHT22;37998;53.416;6.730;2023-06-04T02:49:32;11.90;99.90
51982;DHT22;37998;53.416;6.730;2023-06-04T02:51:58;11.90;99.90
51982;DHT22;37998;53.416;6.730;2023-06-04T02:54:24;11.90;99.90
51982;DHT22;37998;53.416;6.730;2023-06-04T02:56:50;12.00;99.90
51982;DHT22;37998;53.416;6.730;2023-06-04T02:59:17;12.00;99.90
51982;DHT22;37998;53.416;6.730;2023-06-04T03:01:43;12.00;99.90
51982;DHT22;37998;53.416;6.730;2023-06-04T03:04:11;12.00;99.90
51982;DHT22;37998;53.416;6.730;2023-06-04T03:06:41;12.00;99.90
51982;DHT22;37998;53.416;6.730;2023-06-04T03:09:12;12.00;99.90
51982;DHT22;37998;53.416;6.730;2023-06-04T03:11:38;12.00;99.90
51982;DHT22;37998;53.416;6.730;2023-06-04T03:14:04;11.90;99.90
51982;DHT22;37998;53.416;6.730;2023-06-04T03:16:29;11.90;99.90
51982;DHT22;37998;53.416;6.730;2023-06-04T03:18:56;11.90;99.90
51982;DHT22;37998;53.416;6.730;2023-06-04T03:21:22;11.80;99.90
51982;DHT22;37998;53.416;6.730;2023-06-04T03:23:51;11.80;99.90
51982;DHT22;37998;53.416;6.730;2023-06-04T03:26:17;11.70;99.90
51982;DHT22;37998;53.416;6.730;2023-06-04T03:28:43;11.70;99.90
51982;DHT22;37998;53.416;6.730;2023-06-04T03:31:11;11.60;99.90
51982;DHT22;37998;53.416;6.730;2023-06-04T03:33:38;11.50;99.90
51982;DHT22;37998;53.416;6.730;2023-06-04T03:36:04;11.50;99.90
51982;DHT22;37998;53.416;6.730;2023-06-04T03:38:31;11.50;99.90
51982;DHT22;37998;53.416;6.730;2023-06-04T03:40:57;11.50;99.90
51982;DHT22;37998;53.416;6.730;2023-06-04T03:43:23;11.50;99.90
51982;DHT22;37998;53.416;6.730;2023-06-04T03:45:54;11.50;99.90
51982;DHT22;37998;53.416;6.730;2023-06-04T03:48:20;11.50;99.90
51982;DHT22;37998;53.416;6.730;2023-06-04T03:50:47;11.30;99.90
51982;DHT22;37998;53.416;6.730;2023-06-04T03:53:14;11.50;99.90
51982;DHT22;37998;53.416;6.730;2023-06-04T03:55:41;11.50;99.90
51982;DHT22;37998;53.416;6.730;2023-06-04T03:58:08;11.50;99.90
51982;DHT22;37998;53.416;6.730;2023-06-04T04:00:39;11.50;99.90
51982;DHT22;37998;53.416;6.730;2023-06-04T04:03:06;11.50;99.90
51982;DHT22;37998;53.416;6.730;2023-06-04T04:05:33;11.60;99.90
51982;DHT22;37998;53.416;6.730;2023-06-04T04:07:59;11.70;99.90
51982;DHT22;37998;53.416;6.730;2023-06-04T04:10:29;11.80;99.90
51982;DHT22;37998;53.416;6.730;2023-06-04T04:12:55;11.80;99.90
51982;DHT22;37998;53.416;6.730;2023-06-04T04:15:24;11.80;99.90
51982;DHT22;37998;53.416;6.730;2023-06-04T04:17:51;11.90;99.90
51982;DHT22;37998;53.416;6.730;2023-06-04T04:20:18;11.90;99.90
51982;DHT22;37998;53.416;6.730;2023-06-04T04:22:50;11.90;99.90
51982;DHT22;37998;53.416;6.730;2023-06-04T04:25:19;12.00;99.90
51982;DHT22;37998;53.416;6.730;2023-06-04T04:27:45;12.10;99.90
51982;DHT22;37998;53.416;6.730;2023-06-04T04:30:12;12.10;99.90
51982;DHT22;37998;53.416;6.730;2023-06-04T04:32:42;12.10;99.90
51982;DHT22;37998;53.416;6.730;2023-06-04T04:35:16;12.20;99.90
51982;DHT22;37998;53.416;6.730;2023-06-04T04:37:46;12.20;99.90
51982;DHT22;37998;53.416;6.730;2023-06-04T04:40:14;12.30;99.90
51982;DHT22;37998;53.416;6.730;2023-06-04T04:42:43;12.30;99.90
51982;DHT22;37998;53.416;6.730;2023-06-04T04:45:11;12.30;99.90
51982;DHT22;37998;53.416;6.730;2023-06-04T04:47:38;12.40;99.90
51982;DHT22;37998;53.416;6.730;2023-06-04T04:50:04;12.40;99.90
51982;DHT22;37998;53.416;6.730;2023-06-04T04:52:31;12.50;99.90
51982;DHT22;37998;53.416;6.730;2023-06-04T04:54:57;12.50;99.90
51982;DHT22;37998;53.416;6.730;2023-06-04T04:57:26;12.50;99.90
51982;DHT22;37998;53.416;6.730;2023-06-04T04:59:54;12.60;99.90
51982;DHT22;37998;53.416;6.730;2023-06-04T05:02:20;12.60;99.90
51982;DHT22;37998;53.416;6.730;2023-06-04T05:04:47;12.70;99.90
51982;DHT22;37998;53.416;6.730;2023-06-04T05:07:14;12.70;99.90
51982;DHT22;37998;53.416;6.730;2023-06-04T05:09:40;12.80;99.90
51982;DHT22;37998;53.416;6.730;2023-06-04T05:12:07;12.70;99.90
51982;DHT22;37998;53.416;6.730;2023-06-04T05:14:34;12.80;99.90
51982;DHT22;37998;53.416;6.730;2023-06-04T05:17:04;12.80;99.90
51982;DHT22;37998;53.416;6.730;2023-06-04T05:19:30;12.90;99.90
51982;DHT22;37998;53.416;6.730;2023-06-04T05:21:59;12.90;99.90
51982;DHT22;37998;53.416;6.730;2023-06-04T05:24:26;12.90;99.90
51982;DHT22;37998;53.416;6.730;2023-06-04T05:26:57;13.00;99.90
51982;DHT22;37998;53.416;6.730;2023-06-04T05:29:24;13.00;99.90
51982;DHT22;37998;53.416;6.730;2023-06-04T05:31:51;13.10;99.90
51982;DHT22;37998;53.416;6.730;2023-06-04T05:34:19;13.10;99.90
51982;DHT22;37998;53.416;6.730;2023-06-04T05:36:47;13.10;99.90
51982;DHT22;37998;53.416;6.730;2023-06-04T05:39:13;13.20;99.90
51982;DHT22;37998;53.416;6.730;2023-06-04T05:41:55;13.20;99.90
51982;DHT22;37998;53.416;6.730;2023-06-04T05:44:21;13.20;99.90
51982;DHT22;37998;53.416;6.730;2023-06-04T05:46:48;13.20;99.90
51982;DHT22;37998;53.416;6.730;2023-06-04T05:49:14;13.30;99.90
51982;DHT22;37998;53.416;6.730;2023-06-04T05:51:40;13.30;99.90
51982;DHT22;37998;53.416;6.730;2023-06-04T05:54:06;13.30;99.90
51982;DHT22;37998;53.416;6.730;2023-06-04T05:56:35;13.30;99.90
51982;DHT22;37998;53.416;6.730;2023-06-04T05:59:01;13.40;99.90
51982;DHT22;37998;53.416;6.730;2023-06-04T06:01:27;13.40;99.90
51982;DHT22;37998;53.416;6.730;2023-06-04T06:03:54;13.40;99.90
51982;DHT22;37998;53.416;6.730;2023-06-04T06:06:22;13.40;99.90
51982;DHT22;37998;53.416;6.730;2023-06-04T06:08:48;13.40;99.90
51982;DHT22;37998;53.416;6.730;2023-06-04T06:11:15;13.40;99.90
51982;DHT22;37998;53.416;6.730;2023-06-04T06:13:42;13.50;99.90
51982;DHT22;37998;53.416;6.730;2023-06-04T06:16:09;13.50;99.90
51982;DHT22;37998;53.416;6.730;2023-06-04T06:18:35;13.50;99.90
51982;DHT22;37998;53.416;6.730;2023-06-04T06:21:01;13.60;99.90
51982;DHT22;37998;53.416;6.730;2023-06-04T06:23:28;13.70;99.90
51982;DHT22;37998;53.416;6.730;2023-06-04T06:25:54;13.60;99.90
51982;DHT22;37998;53.416;6.730;2023-06-04T06:28:23;13.70;99.90
51982;DHT22;37998;53.416;6.730;2023-06-04T06:30:50;13.70;99.90
51982;DHT22;37998;53.416;6.730;2023-06-04T06:33:16;13.70;99.90
51982;DHT22;37998;53.416;6.730;2023-06-04T06:35:42;13.70;99.90
51982;DHT22;37998;53.416;6.730;2023-06-04T06:38:09;13.80;99.90
51982;DHT22;37998;53.416;6.730;2023-06-04T06:40:35;13.70;99.90
51982;DHT22;37998;53.416;6.730;2023-06-04T06:43:01;13.80;99.90
51982;DHT22;37998;53.416;6.730;2023-06-04T06:45:27;13.80;99.90
51982;DHT22;37998;53.416;6.730;2023-06-04T06:47:53;13.90;99.90
51982;DHT22;37998;53.416;6.730;2023-06-04T06:50:19;14.00;99.90
51982;DHT22;37998;53.416;6.730;2023-06-04T06:52:45;14.00;99.90
51982;DHT22;37998;53.416;6.730;2023-06-04T06:55:11;14.00;99.90
51982;DHT22;37998;53.416;6.730;2023-06-04T06:57:37;14.10;99.90
51982;DHT22;37998;53.416;6.730;2023-06-04T07:00:03;14.30;99.90
51982;DHT22;37998;53.416;6.730;2023-06-04T07:02:31;14.40;99.90
51982;DHT22;37998;53.416;6.730;2023-06-04T07:04:57;14.50;99.90
51982;DHT22;37998;53.416;6.730;2023-06-04T07:07:23;14.60;99.90
51982;DHT22;37998;53.416;6.730;2023-06-04T07:09:53;14.60;99.90
51982;DHT22;37998;53.416;6.730;2023-06-04T07:12:19;14.70;99.90
51982;DHT22;37998;53.416;6.730;2023-06-04T07:14:45;14.70;99.90
51982;DHT22;37998;53.416;6.730;2023-06-04T07:17:11;14.70;99.90
51982;DHT22;37998;53.416;6.730;2023-06-04T07:19:37;14.70;99.90
51982;DHT22;37998;53.416;6.730;2023-06-04T07:22:03;14.60;99.90
51982;DHT22;37998;53.416;6.730;2023-06-04T07:24:29;14.70;99.90
51982;DHT22;37998;53.416;6.730;2023-06-04T07:26:55;14.80;99.90
51982;DHT22;37998;53.416;6.730;2023-06-04T07:29:20;14.80;99.90
51982;DHT22;37998;53.416;6.730;2023-06-04T07:31:46;14.90;99.90
51982;DHT22;37998;53.416;6.730;2023-06-04T07:34:12;15.00;99.90
51982;DHT22;37998;53.416;6.730;2023-06-04T07:36:38;15.00;99.90
51982;DHT22;37998;53.416;6.730;2023-06-04T07:39:04;15.00;99.90
51982;DHT22;37998;53.416;6.730;2023-06-04T07:41:34;15.00;99.90
51982;DHT22;37998;53.416;6.730;2023-06-04T07:44:00;15.00;99.90
51982;DHT22;37998;53.416;6.730;2023-06-04T07:46:26;15.10;99.90
51982;DHT22;37998;53.416;6.730;2023-06-04T07:48:52;15.20;99.90
51982;DHT22;37998;53.416;6.730;2023-06-04T07:51:18;15.20;99.90
51982;DHT22;37998;53.416;6.730;2023-06-04T07:53:45;15.20;99.90
51982;DHT22;37998;53.416;6.730;2023-06-04T07:56:11;15.30;99.90
51982;DHT22;37998;53.416;6.730;2023-06-04T07:58:36;15.30;99.90
51982;DHT22;37998;53.416;6.730;2023-06-04T08:01:02;15.40;99.90
51982;DHT22;37998;53.416;6.730;2023-06-04T08:03:28;15.40;99.90
51982;DHT22;37998;53.416;6.730;2023-06-04T08:05:54;15.50;99.90
51982;DHT22;37998;53.416;6.730;2023-06-04T08:08:23;15.70;99.90
51982;DHT22;37998;53.416;6.730;2023-06-04T08:10:49;15.80;99.90
51982;DHT22;37998;53.416;6.730;2023-06-04T08:13:15;15.90;99.90
51982;DHT22;37998;53.416;6.730;2023-06-04T08:15:41;16.10;99.90
51982;DHT22;37998;53.416;6.730;2023-06-04T08:18:27;16.20;99.90
51982;DHT22;37998;53.416;6.730;2023-06-04T08:21:09;16.40;99.90
51982;DHT22;37998;53.416;6.730;2023-06-04T08:23:56;16.50;99.90
51982;DHT22;37998;53.416;6.730;2023-06-04T08:26:42;16.60;99.90
51982;DHT22;37998;53.416;6.730;2023-06-04T08:29:14;16.60;99.90
51982;DHT22;37998;53.416;6.730;2023-06-04T08:31:50;16.40;99.90
51982;DHT22;37998;53.416;6.730;2023-06-04T08:34:24;16.30;99.90
51982;DHT22;37998;53.416;6.730;2023-06-04T08:36:50;16.20;99.90
51982;DHT22;37998;53.416;6.730;2023-06-04T08:39:17;16.20;99.90
51982;DHT22;37998;53.416;6.730;2023-06-04T08:41:50;16.00;99.90
51982;DHT22;37998;53.416;6.730;2023-06-04T08:44:17;16.00;99.90
51982;DHT22;37998;53.416;6.730;2023-06-04T08:46:44;15.80;99.90
51982;DHT22;37998;53.416;6.730;2023-06-04T08:49:12;15.80;99.90
51982;DHT22;37998;53.416;6.730;2023-06-04T08:51:38;15.80;99.90
51982;DHT22;37998;53.416;6.730;2023-06-04T08:54:08;15.90;99.90
51982;DHT22;37998;53.416;6.730;2023-06-04T08:56:35;15.80;99.90
51982;DHT22;37998;53.416;6.730;2023-06-04T08:59:06;16.00;99.90
51982;DHT22;37998;53.416;6.730;2023-06-04T09:01:34;16.10;99.90
51982;DHT22;37998;53.416;6.730;2023-06-04T09:04:06;16.10;99.90
51982;DHT22;37998;53.416;6.730;2023-06-04T09:06:33;16.00;99.90
51982;DHT22;37998;53.416;6.730;2023-06-04T09:09:01;15.90;99.90
51982;DHT22;37998;53.416;6.730;2023-06-04T09:11:39;16.00;99.90
51982;DHT22;37998;53.416;6.730;2023-06-04T09:14:11;16.00;99.90
51982;DHT22;37998;53.416;6.730;2023-06-04T09:16:50;16.00;99.90
51982;DHT22;37998;53.416;6.730;2023-06-04T09:19:18;16.00;99.90
51982;DHT22;37998;53.416;6.730;2023-06-04T09:21:55;16.00;99.90
51982;DHT22;37998;53.416;6.730;2023-06-04T09:24:25;16.00;99.90
51982;DHT22;37998;53.416;6.730;2023-06-04T09:26:51;16.10;99.90
51982;DHT22;37998;53.416;6.730;2023-06-04T09:29:18;16.20;99.90
51982;DHT22;37998;53.416;6.730;2023-06-04T09:31:45;16.10;99.90
51982;DHT22;37998;53.416;6.730;2023-06-04T09:34:13;16.20;99.90
51982;DHT22;37998;53.416;6.730;2023-06-04T09:36:40;16.20;99.90
51982;DHT22;37998;53.416;6.730;2023-06-04T09:39:18;16.20;99.90
51982;DHT22;37998;53.416;6.730;2023-06-04T09:41:44;16.30;99.90
51982;DHT22;37998;53.416;6.730;2023-06-04T09:44:11;16.20;99.90
51982;DHT22;37998;53.416;6.730;2023-06-04T09:46:37;16.40;99.90
51982;DHT22;37998;53.416;6.730;2023-06-04T09:49:04;16.40;99.90
51982;DHT22;37998;53.416;6.730;2023-06-04T09:51:31;16.40;99.90
51982;DHT22;37998;53.416;6.730;2023-06-04T09:54:03;16.30;99.90
51982;DHT22;37998;53.416;6.730;2023-06-04T09:56:29;16.30;99.90
51982;DHT22;37998;53.416;6.730;2023-06-04T09:58:59;16.30;99.90
51982;DHT22;37998;53.416;6.730;2023-06-04T10:01:29;16.40;99.90
51982;DHT22;37998;53.416;6.730;2023-06-04T10:03:58;16.50;99.90
51982;DHT22;37998;53.416;6.730;2023-06-04T10:06:33;16.60;99.90
51982;DHT22;37998;53.416;6.730;2023-06-04T10:09:06;16.50;99.90
51982;DHT22;37998;53.416;6.730;2023-06-04T10:11:47;16.60;99.90
51982;DHT22;37998;53.416;6.730;2023-06-04T10:14:21;16.60;99.90
51982;DHT22;37998;53.416;6.730;2023-06-04T10:16:50;16.60;99.90
51982;DHT22;37998;53.416;6.730;2023-06-04T10:19:18;16.60;99.90
51982;DHT22;37998;53.416;6.730;2023-06-04T10:21:44;16.70;99.90
51982;DHT22;37998;53.416;6.730;2023-06-04T10:24:11;16.70;99.90
51982;DHT22;37998;53.416;6.730;2023-06-04T10:26:38;16.80;99.90
51982;DHT22;37998;53.416;6.730;2023-06-04T10:29:06;16.80;99.90
51982;DHT22;37998;53.416;6.730;2023-06-04T10:31:32;16.90;99.90
51982;DHT22;37998;53.416;6.730;2023-06-04T10:33:58;16.80;99.90
51982;DHT22;37998;53.416;6.730;2023-06-04T10:36:25;16.80;99.90
51982;DHT22;37998;53.416;6.730;2023-06-04T10:38:52;16.70;99.90
51982;DHT22;37998;53.416;6.730;2023-06-04T10:41:19;16.40;99.90
51982;DHT22;37998;53.416;6.730;2023-06-04T10:43:48;16.70;99.90
51982;DHT22;37998;53.416;6.730;2023-06-04T10:46:18;16.70;99.90
51982;DHT22;37998;53.416;6.730;2023-06-04T10:48:52;16.80;99.90
51982;DHT22;37998;53.416;6.730;2023-06-04T10:51:34;16.90;99.90
51982;DHT22;37998;53.416;6.730;2023-06-04T10:54:02;16.80;99.90
51982;DHT22;37998;53.416;6.730;2023-06-04T10:56:33;16.70;99.90
51982;DHT22;37998;53.416;6.730;2023-06-04T10:59:16;16.60;99.90
51982;DHT22;37998;53.416;6.730;2023-06-04T11:01:42;16.70;99.90
51982;DHT22;37998;53.416;6.730;2023-06-04T11:04:22;16.70;99.90
51982;DHT22;37998;53.416;6.730;2023-06-04T11:07:04;16.80;99.90
51982;DHT22;37998;53.416;6.730;2023-06-04T11:09:50;16.80;99.90
51982;DHT22;37998;53.416;6.730;2023-06-04T11:12:16;16.70;99.90
51982;DHT22;37998;53.416;6.730;2023-06-04T11:14:54;16.60;99.90
51982;DHT22;37998;53.416;6.730;2023-06-04T11:17:20;16.70;99.90
51982;DHT22;37998;53.416;6.730;2023-06-04T11:19:48;16.70;99.90
51982;DHT22;37998;53.416;6.730;2023-06-04T11:22:15;16.80;99.90
51982;DHT22;37998;53.416;6.730;2023-06-04T11:24:41;16.70;99.90
51982;DHT22;37998;53.416;6.730;2023-06-04T11:27:07;16.60;99.90
51982;DHT22;37998;53.416;6.730;2023-06-04T11:29:33;16.70;99.90
51982;DHT22;37998;53.416;6.730;2023-06-04T11:31:59;16.80;99.90
51982;DHT22;37998;53.416;6.730;2023-06-04T11:34:30;17.00;99.90
51982;DHT22;37998;53.416;6.730;2023-06-04T11:37:10;17.10;99.90
51982;DHT22;37998;53.416;6.730;2023-06-04T11:39:37;17.10;99.90
51982;DHT22;37998;53.416;6.730;2023-06-04T11:42:06;17.10;99.90
51982;DHT22;37998;53.416;6.730;2023-06-04T11:44:33;17.00;99.90
51982;DHT22;37998;53.416;6.730;2023-06-04T11:46:59;17.00;99.90
51982;DHT22;37998;53.416;6.730;2023-06-04T11:49:25;17.10;99.90
51982;DHT22;37998;53.416;6.730;2023-06-04T11:51:53;17.10;99.90
51982;DHT22;37998;53.416;6.730;2023-06-04T11:54:22;17.10;99.90
51982;DHT22;37998;53.416;6.730;2023-06-04T11:56:49;17.10;99.90
51982;DHT22;37998;53.416;6.730;2023-06-04T11:59:17;17.00;99.90
51982;DHT22;37998;53.416;6.730;2023-06-04T12:01:45;17.00;99.90
51982;DHT22;37998;53.416;6.730;2023-06-04T12:04:19;17.10;99.90
51982;DHT22;37998;53.416;6.730;2023-06-04T12:06:59;17.20;99.90
51982;DHT22;37998;53.416;6.730;2023-06-04T12:09:31;17.20;99.90
51982;DHT22;37998;53.416;6.730;2023-06-04T12:12:07;17.40;99.90
51982;DHT22;37998;53.416;6.730;2023-06-04T12:14:34;17.30;99.90
51982;DHT22;37998;53.416;6.730;2023-06-04T12:17:02;17.10;99.90
51982;DHT22;37998;53.416;6.730;2023-06-04T12:19:31;17.10;99.90
51982;DHT22;37998;53.416;6.730;2023-06-04T12:22:01;17.10;99.90
51982;DHT22;37998;53.416;6.730;2023-06-04T12:24:28;17.10;99.90
51982;DHT22;37998;53.416;6.730;2023-06-04T12:27:06;17.20;99.90
51982;DHT22;37998;53.416;6.730;2023-06-04T12:29:32;17.40;99.90
51982;DHT22;37998;53.416;6.730;2023-06-04T12:32:04;17.50;99.90
51982;DHT22;37998;53.416;6.730;2023-06-04T12:34:40;17.60;99.90
51982;DHT22;37998;53.416;6.730;2023-06-04T12:37:07;17.50;99.90
51982;DHT22;37998;53.416;6.730;2023-06-04T12:39:34;17.70;99.90
51982;DHT22;37998;53.416;6.730;2023-06-04T12:42:08;17.80;99.90
51982;DHT22;37998;53.416;6.730;2023-06-04T12:44:39;17.60;99.90
51982;DHT22;37998;53.416;6.730;2023-06-04T12:47:06;17.40;99.90
51982;DHT22;37998;53.416;6.730;2023-06-04T12:49:33;17.40;99.90
51982;DHT22;37998;53.416;6.730;2023-06-04T12:51:59;17.40;99.90
51982;DHT22;37998;53.416;6.730;2023-06-04T12:54:28;17.50;99.90
51982;DHT22;37998;53.416;6.730;2023-06-04T12:56:55;18.30;99.90
51982;DHT22;37998;53.416;6.730;2023-06-04T12:59:23;17.60;99.90
51982;DHT22;37998;53.416;6.730;2023-06-04T13:01:49;17.50;99.90
51982;DHT22;37998;53.416;6.730;2023-06-04T13:04:15;17.60;99.90
51982;DHT22;37998;53.416;6.730;2023-06-04T13:06:41;17.60;99.90
51982;DHT22;37998;53.416;6.730;2023-06-04T13:09:07;17.70;99.90
51982;DHT22;37998;53.416;6.730;2023-06-04T13:11:41;17.60;99.90
51982;DHT22;37998;53.416;6.730;2023-06-04T13:14:08;17.40;99.90
51982;DHT22;37998;53.416;6.730;2023-06-04T13:16:34;17.20;99.90
51982;DHT22;37998;53.416;6.730;2023-06-04T13:19:02;17.30;99.90
51982;DHT22;37998;53.416;6.730;2023-06-04T13:21:28;17.20;99.90
51982;DHT22;37998;53.416;6.730;2023-06-04T13:23:54;17.20;99.90
51982;DHT22;37998;53.416;6.730;2023-06-04T13:26:22;17.30;99.90
51982;DHT22;37998;53.416;6.730;2023-06-04T13:28:48;17.30;99.90
51982;DHT22;37998;53.416;6.730;2023-06-04T13:31:14;17.50;99.90
51982;DHT22;37998;53.416;6.730;2023-06-04T13:33:40;17.40;99.90
51982;DHT22;37998;53.416;6.730;2023-06-04T13:36:07;17.30;99.90
51982;DHT22;37998;53.416;6.730;2023-06-04T13:38:33;17.30;99.90
51982;DHT22;37998;53.416;6.730;2023-06-04T13:40:59;17.20;99.90
51982;DHT22;37998;53.416;6.730;2023-06-04T13:43:25;17.20;99.90
51982;DHT22;37998;53.416;6.730;2023-06-04T13:45:51;17.20;99.90
51982;DHT22;37998;53.416;6.730;2023-06-04T13:48:17;17.30;99.90
51982;DHT22;37998;53.416;6.730;2023-06-04T13:50:43;17.20;99.90
51982;DHT22;37998;53.416;6.730;2023-06-04T13:53:09;17.20;99.90
51982;DHT22;37998;53.416;6.730;2023-06-04T13:55:39;17.20;99.90
51982;DHT22;37998;53.416;6.730;2023-06-04T13:58:07;17.10;99.90
51982;DHT22;37998;53.416;6.730;2023-06-04T14:00:33;17.20;99.90
51982;DHT22;37998;53.416;6.730;2023-06-04T14:03:00;17.20;99.90
51982;DHT22;37998;53.416;6.730;2023-06-04T14:05:26;17.10;99.90
51982;DHT22;37998;53.416;6.730;2023-06-04T14:07:54;16.90;99.90
51982;DHT22;37998;53.416;6.730;2023-06-04T14:10:20;17.00;99.90
51982;DHT22;37998;53.416;6.730;2023-06-04T14:12:46;17.00;99.90
51982;DHT22;37998;53.416;6.730;2023-06-04T14:15:12;17.10;99.90
51982;DHT22;37998;53.416;6.730;2023-06-04T14:17:38;17.00;99.90
51982;DHT22;37998;53.416;6.730;2023-06-04T14:20:05;17.10;99.90
51982;DHT22;37998;53.416;6.730;2023-06-04T14:22:36;17.00;99.90
51982;DHT22;37998;53.416;6.730;2023-06-04T14:25:09;16.90;99.90
51982;DHT22;37998;53.416;6.730;2023-06-04T14:27:35;16.70;99.90
51982;DHT22;37998;53.416;6.730;2023-06-04T14:30:02;16.70;99.90
51982;DHT22;37998;53.416;6.730;2023-06-04T14:32:28;16.60;99.90
51982;DHT22;37998;53.416;6.730;2023-06-04T14:34:54;16.60;99.90
51982;DHT22;37998;53.416;6.730;2023-06-04T14:37:21;16.60;99.90
51982;DHT22;37998;53.416;6.730;2023-06-04T14:39:47;16.80;99.90
51982;DHT22;37998;53.416;6.730;2023-06-04T14:42:13;16.70;99.90
51982;DHT22;37998;53.416;6.730;2023-06-04T14:44:39;16.70;99.90
51982;DHT22;37998;53.416;6.730;2023-06-04T14:47:05;16.60;99.90
51982;DHT22;37998;53.416;6.730;2023-06-04T14:49:31;16.60;99.90
51982;DHT22;37998;53.416;6.730;2023-06-04T14:51:57;16.60;99.90
51982;DHT22;37998;53.416;6.730;2023-06-04T14:54:23;16.60;99.90
51982;DHT22;37998;53.416;6.730;2023-06-04T14:56:49;16.60;99.90
51982;DHT22;37998;53.416;6.730;2023-06-04T14:59:15;16.60;99.90
51982;DHT22;37998;53.416;6.730;2023-06-04T15:01:42;16.60;99.90
51982;DHT22;37998;53.416;6.730;2023-06-04T15:04:08;16.50;99.90
51982;DHT22;37998;53.416;6.730;2023-06-04T15:06:34;16.50;99.90
51982;DHT22;37998;53.416;6.730;2023-06-04T15:09:00;16.50;99.90
51982;DHT22;37998;53.416;6.730;2023-06-04T15:11:26;16.50;99.90
51982;DHT22;37998;53.416;6.730;2023-06-04T15:13:53;16.40;99.90
51982;DHT22;37998;53.416;6.730;2023-06-04T15:16:19;16.40;99.90
51982;DHT22;37998;53.416;6.730;2023-06-04T15:18:46;16.30;99.90
51982;DHT22;37998;53.416;6.730;2023-06-04T15:21:12;16.20;99.90
51982;DHT22;37998;53.416;6.730;2023-06-04T15:23:38;16.20;99.90
51982;DHT22;37998;53.416;6.730;2023-06-04T15:26:04;16.20;99.90
51982;DHT22;37998;53.416;6.730;2023-06-04T15:28:30;16.20;99.90
51982;DHT22;37998;53.416;6.730;2023-06-04T15:30:56;16.30;99.90
51982;DHT22;37998;53.416;6.730;2023-06-04T15:33:22;16.40;99.90
51982;DHT22;37998;53.416;6.730;2023-06-04T15:35:47;16.30;99.90
51982;DHT22;37998;53.416;6.730;2023-06-04T15:38:16;16.30;99.90
51982;DHT22;37998;53.416;6.730;2023-06-04T15:40:42;16.30;99.90